Aérodrome :
LOGIN :

S'inscrire | Disclaimer

   EN    FR    IT 

 










Légende :    VFR   VFR Marginal   IFR   IFR Intensif   IFR Très Intensif
Visi : 
Plafond : 
>= 8 km
>= 3000ft
5 à 8 km
1000 à 3000 ft
1500m à 5 km
500 à 1000 ft
800 à 1500m
200 à 500 ft
< 800m
< 200 ft
Symboles :   Orages  Brouillard  Fortes neiges  Fortes précipitations  Vent > 20 kt
SIGMETs :   Divers  Orages  Givrage  Turbulence  Onde Orograph.  Cendres Volcan.







- Altitude de l'aérodrome : 527 ft
- Code IATA : DBV


LDDU - Dubrovnik

DERNIER METAR :
  • 222000Z 07005KT 040V110 CAVOK 24/21 Q1011 NOSIG

METARs EXPIRÉS :
  • 221930Z 11005KT 080V140 CAVOK 24/21 Q1010 NOSIG
  • 221900Z 14004KT 100V160 CAVOK 24/21 Q1010 NOSIG
  • 221830Z VRB03KT CAVOK 25/21 Q1010 NOSIG
  • 221800Z 13007KT CAVOK 25/21 Q1010 NOSIG
  • 221730Z 17007KT 140V220 CAVOK 25/22 Q1010 NOSIG

TAF TAF LDDU
Valide du 22 à 18h jusqu'au 23 à 18h UTC


221725Z 2218/2318 16006KT CAVOK TX28/2313Z TN23/2304Z
BECMG 2218/2220 30006KT
PROB30
TEMPO 2308/2318 32012KT -TSRA FEW030CB SCT040
Pas de NOTAMs connus pour ce terrain.
2 SIGMETs publiés pour la FIR Zagreb (LDZO) :
 
Orages noyés dans la masse
LDZO SIGMET 4 VALID 222000/222200 LDZA
LDZO ZAGREB FIR EMBD TS OBS WI N4518 E01636 - N4607 E01711 - N4553 E01851 - N4511 E01926 - N4451 E01906 - N4503 E01752 - N4518 E01636 TOP FL380 MOV NE 10KT NC=
Orages noyés dans la masse
LDZO SIGMET 3 VALID 221827/222000 LDZA
LDZO ZAGREB FIR EMBD TS OBS WI N4604 E01608 - N4622 E01653 - N4559 E01850 - N4538 E01900 - N4519 E01719 - N4604 E01608 TOP FL380 MOV NE 10KT NC=



MET'MAP, la Météo Aéronautique d'un coup d'oeil ! - Copyright ORBIFLY Décembre 2007 - Disclaimer

ORBIFLY MET'MAP TEAM :

Programmation & Développement : Alexandra Zaïnal
Conception & Développement : Baudouin d'Aumeries
Co-Programmation & Développement : Marc-Olivier Méhu
Soutien technique & logistique : Manuel Goepfert

Contact : metmap@orbifly.com




SOURCES & CREDITS :

   NOAA